sensor_id;sensor_type;location;lat;lon;timestamp;temperature;humidity
8882;DHT22;4477;48.736;9.176;2023-02-28T00:12:32;6.00;50.00
8882;DHT22;4477;48.736;9.176;2023-02-28T00:14:59;-4.20;82.20
8882;DHT22;4477;48.736;9.176;2023-02-28T00:22:21;-4.30;82.40
8882;DHT22;4477;48.736;9.176;2023-02-28T00:24:47;-4.40;83.10
8882;DHT22;4477;48.736;9.176;2023-02-28T00:27:16;-4.40;83.40
8882;DHT22;4477;48.736;9.176;2023-02-28T00:29:42;-4.40;83.50
8882;DHT22;4477;48.736;9.176;2023-02-28T00:32:10;-4.40;83.30
8882;DHT22;4477;48.736;9.176;2023-02-28T00:34:37;-4.50;83.60
8882;DHT22;4477;48.736;9.176;2023-02-28T00:37:04;-4.40;83.60
8882;DHT22;4477;48.736;9.176;2023-02-28T00:39:33;-4.50;83.90
8882;DHT22;4477;48.736;9.176;2023-02-28T00:42:01;-4.50;83.90
8882;DHT22;4477;48.736;9.176;2023-02-28T00:44:31;-4.50;84.10
8882;DHT22;4477;48.736;9.176;2023-02-28T00:46:58;-4.60;84.40
8882;DHT22;4477;48.736;9.176;2023-02-28T00:49:26;-4.60;84.90
8882;DHT22;4477;48.736;9.176;2023-02-28T12:06:00;-4.70;84.80
8882;DHT22;4477;48.736;9.176;2023-02-28T12:21:38;8.40;54.50
8882;DHT22;4477;48.736;9.176;2023-02-28T12:24:28;8.70;52.00
8882;DHT22;4477;48.736;9.176;2023-02-28T12:27:00;7.90;51.30
8882;DHT22;4477;48.736;9.176;2023-02-28T12:29:31;7.20;53.50
8882;DHT22;4477;48.736;9.176;2023-02-28T12:32:04;8.40;53.10
8882;DHT22;4477;48.736;9.176;2023-02-28T12:34:35;9.10;50.10
8882;DHT22;4477;48.736;9.176;2023-02-28T12:37:07;9.90;49.90
8882;DHT22;4477;48.736;9.176;2023-02-28T12:39:41;10.10;49.00
8882;DHT22;4477;48.736;9.176;2023-02-28T12:42:13;11.10;46.10
8882;DHT22;4477;48.736;9.176;2023-02-28T12:44:46;11.60;45.40
8882;DHT22;4477;48.736;9.176;2023-02-28T12:47:16;12.10;44.70
8882;DHT22;4477;48.736;9.176;2023-02-28T12:49:46;12.00;44.20
8882;DHT22;4477;48.736;9.176;2023-02-28T13:49:38;11.70;42.50
8882;DHT22;4477;48.736;9.176;2023-02-28T13:52:12;11.90;42.30
8882;DHT22;4477;48.736;9.176;2023-02-28T14:15:40;11.50;42.20
8882;DHT22;4477;48.736;9.176;2023-02-28T14:18:22;10.50;44.10
8882;DHT22;4477;48.736;9.176;2023-02-28T14:43:54;11.50;43.70
8882;DHT22;4477;48.736;9.176;2023-02-28T14:46:23;11.50;41.60
8882;DHT22;4477;48.736;9.176;2023-02-28T15:31:28;11.50;41.30
8882;DHT22;4477;48.736;9.176;2023-02-28T15:33:56;7.60;48.80
8882;DHT22;4477;48.736;9.176;2023-02-28T15:36:28;7.30;49.60
8882;DHT22;4477;48.736;9.176;2023-02-28T15:38:57;7.30;50.60
8882;DHT22;4477;48.736;9.176;2023-02-28T15:41:26;7.20;49.90
8882;DHT22;4477;48.736;9.176;2023-02-28T15:46:59;6.50;51.90
8882;DHT22;4477;48.736;9.176;2023-02-28T15:49:28;6.50;51.70
8882;DHT22;4477;48.736;9.176;2023-02-28T15:54:29;6.10;52.20
8882;DHT22;4477;48.736;9.176;2023-02-28T15:56:58;5.70;53.40
8882;DHT22;4477;48.736;9.176;2023-02-28T15:59:28;5.30;54.60
8882;DHT22;4477;48.736;9.176;2023-02-28T16:02:14;5.00;55.20
8882;DHT22;4477;48.736;9.176;2023-02-28T16:05:01;4.90;55.50
8882;DHT22;4477;48.736;9.176;2023-02-28T16:07:29;4.80;56.20
8882;DHT22;4477;48.736;9.176;2023-02-28T16:09:56;4.50;56.60
8882;DHT22;4477;48.736;9.176;2023-02-28T16:12:26;4.40;57.40
8882;DHT22;4477;48.736;9.176;2023-02-28T16:14:55;4.20;57.90
8882;DHT22;4477;48.736;9.176;2023-02-28T16:17:24;4.10;58.20
8882;DHT22;4477;48.736;9.176;2023-02-28T16:19:54;4.00;59.20
8882;DHT22;4477;48.736;9.176;2023-02-28T16:22:21;3.80;59.50
8882;DHT22;4477;48.736;9.176;2023-02-28T16:24:50;3.40;59.90
8882;DHT22;4477;48.736;9.176;2023-02-28T16:27:20;3.30;61.40
8882;DHT22;4477;48.736;9.176;2023-02-28T16:29:48;3.10;61.80
8882;DHT22;4477;48.736;9.176;2023-02-28T16:32:15;2.90;62.50
